Terminal Aerodrome Forecast
Issued by NWS Central Illinois

Home | Current Version | Previous Version | Text Only | Print | Product List | Glossary On
Versions: 1 2 3 4 5 6 7 8 9 10 11 12 13 14 15 16 17 18 19 20 21 22 23 24 25 26
000
FTUS43 KILX 230300 AAB
TAFPIA
TAF AMD
KPIA 230357Z 2304/2324 19012KT P6SM BKN017 OVC060
     FM230500 19013KT 6SM BR OVC020 WS020/22040KT
     FM230800 18011KT 3SM -RADZ BR OVC007 WS020/22040KT
     FM231400 17013G18KT 3SM -SHRA BR OVC007=

USA.gov is the U.S. government's official web portal to all federal, state and local government web resources and services.